Portada
METAR-TAF:

METAR-TAF

Aeropuertos :

Komatsujima, Japón

latitud: 34-00N, longitud: 134-38E, altitud: 3 m

Observación

El informe se hizo hace 23 horas y 31 minutos, a las 01:26 UTC
Viento 16 kt del oeste-noroeste con ráfagas de 28 kt
Temperatura 7°C
Humedad 45%
Presión 1019 hPa
Visibilidad 10 km o más
Escasas nubes a una altura de 3000 ft

METAR: RJOP 180126Z 30016G28KT 9999 FEW030 07/M04 Q1019 RMK 1CU030 A3012

Hora: 09:57 (00:57 UTC)


TAF: falta

Observaciones y pronósticos meteorológicos de más de 4000 aeropuertos (mensajes METAR y TAF).

Los puntos amarillos y rojos representan las estaciones disponibles.

Ponga el ratón en el punto deseado para ver el nombre de la estación.

Haga clic para ver las observaciones y los pronósticos meteorológicos.

Para cambiar el mapa : haga clic en los botones verdes con una cruz de color negro para hacer un zoom, en el botón verde con un guión para alejar o en las flechas verdes para mapas adyacentes.


METAR-TAF: